メインページ
METAR-TAF:

METAR-TAF

空港 :

バンクーバー, ブリティッシュコロンビア州, カナダ

バンクーバー国際空港

緯度: 49-11N, 経度: 123-10W, 海抜: 3m

現時点の気象観測

当レポートは44分前の02:00(UTC)に作成
西/南西の風 5kt
気温 12°C
湿度 71%
気圧 1024 hPa
視程: 48.3km
高度19000ftの雲はほとんどない
高度20000ftの雲は散在している
高度23000ftの雲は散在している

METAR: CYVR 200200Z 24005KT 30SM FEW190 SCT200 SCT230 12/07 A3023 RMK AC2CC1CS1 SLP238

時間: 19:44 (02:44 UTC)

予報

当レポートは6分前の02:38(UTC)に作成
予報は20日の 03時(UTC)から 21日の 06時(UTC)まで有効
西/南西の風 5kt
視程: 10km
高度22000ftの千切れ雲あり
20日の 05時(UTC)から 20日の 07時(UTC)まで徐々に
の風 7kt
20日の 0800時(UTC)から
の風 7kt
視程: 10km
高度6000ftの千切れ雲あり
高度12000ftの曇り
21日の 0100時(UTC)から
東/南東の風 7kt
視程: 10km
高度3000ftの千切れ雲あり
高度6000ftの曇り
弱いにわか雨

TAF: CYVR 200238Z 2003/2106 24005KT P6SM BKN220 BECMG 2005/2007 09007KT FM200800 09007KT P6SM BKN060 OVC120 FM210100 12007KT P6SM -SHRA BKN030 OVC060 RMK NXT FCST BY 200600Z

4,000以上の空港の気象観測と天気予報(METAR報とTAF報)

利用可能な観測所は地図上に黄色い丸と赤い丸で示す。

丸の上にカーソルを重ねると観測所名を参照できる。

次にクリックすると気象観測と天気予報を参照できる。

マップの切り替え:黒色「×」印の緑ボタンをクリックして拡大、「-」印の緑ボタンをクリックして縮小、緑色の三角印をクリックして隣りの地図に切り替え


METAR-TAF: